createdAt,value
2018-11-07T00:02:05.005Z,46.40
2018-11-07T00:04:33.635Z,48.70
2018-11-07T00:07:02.276Z,49.10
2018-11-07T00:09:30.961Z,49.03
2018-11-07T00:11:59.535Z,48.60
2018-11-07T00:14:28.139Z,50.00
2018-11-07T00:16:56.790Z,48.77
2018-11-07T00:19:25.452Z,47.60
2018-11-07T00:21:54.015Z,48.40
2018-11-07T00:24:22.874Z,48.73
2018-11-07T00:26:51.536Z,48.87
2018-11-07T00:29:20.072Z,47.07
2018-11-07T00:31:48.649Z,47.37
2018-11-07T00:34:17.342Z,46.83
2018-11-07T00:36:45.918Z,46.10
2018-11-07T00:39:14.418Z,47.83
2018-11-07T00:41:43.020Z,48.60
2018-11-07T00:44:11.585Z,49.20
2018-11-07T00:46:40.249Z,49.50
2018-11-07T00:49:08.892Z,46.30
2018-11-07T00:51:37.455Z,49.87
2018-11-07T00:54:06.101Z,48.73
2018-11-07T00:56:34.578Z,47.40
2018-11-07T00:59:03.043Z,46.07
2018-11-07T01:01:31.648Z,44.73
2018-11-07T01:04:00.362Z,42.67
2018-11-07T01:06:29.081Z,44.73
2018-11-07T01:08:57.561Z,44.30
2018-11-07T01:11:26.197Z,46.13
2018-11-07T01:13:54.699Z,44.30
2018-11-07T01:16:23.281Z,47.97
2018-11-07T01:18:52.045Z,46.20
2018-11-07T01:21:20.633Z,48.77
2018-11-07T01:23:49.191Z,46.03
2018-11-07T01:26:19.175Z,47.27
2018-11-07T01:28:47.697Z,46.60
2018-11-07T01:31:16.339Z,47.03
2018-11-07T01:33:44.921Z,45.93
2018-11-07T01:36:13.542Z,43.70
2018-11-07T01:38:42.200Z,47.63
2018-11-07T01:41:10.820Z,45.07
2018-11-07T01:43:39.512Z,45.83
2018-11-07T01:46:08.182Z,46.53
2018-11-07T01:48:36.820Z,48.67
2018-11-07T01:51:05.926Z,46.90
2018-11-07T01:53:34.549Z,50.50
2018-11-07T01:56:03.201Z,48.10
2018-11-07T01:58:31.961Z,47.53
2018-11-07T02:01:00.673Z,48.07
2018-11-07T02:03:29.167Z,47.47
2018-11-07T02:05:57.814Z,49.00
2018-11-07T02:08:31.576Z,45.07
2018-11-07T02:11:01.066Z,48.03
2018-11-07T02:13:29.832Z,44.93
2018-11-07T02:15:58.540Z,48.13
2018-11-07T02:18:27.231Z,44.93
2018-11-07T02:20:55.794Z,44.97
2018-11-07T02:23:24.407Z,46.63
2018-11-07T02:25:53.058Z,45.87
2018-11-07T02:28:21.560Z,45.13
2018-11-07T02:30:50.297Z,45.93
2018-11-07T02:33:18.938Z,44.23
2018-11-07T02:35:47.482Z,46.87
2018-11-07T02:38:16.120Z,47.17
2018-11-07T02:40:44.791Z,47.10
2018-11-07T02:43:13.490Z,45.53
2018-11-07T02:45:42.052Z,46.10
2018-11-07T02:48:10.924Z,46.67
2018-11-07T02:50:39.517Z,45.10
2018-11-07T02:53:08.166Z,44.23
2018-11-07T02:55:36.740Z,46.13
2018-11-07T02:58:05.485Z,47.70
2018-11-07T03:00:34.011Z,45.40
2018-11-07T03:03:02.574Z,47.57
2018-11-07T03:05:31.160Z,44.37
2018-11-07T03:07:59.818Z,46.30
2018-11-07T03:10:28.396Z,46.53
2018-11-07T03:12:57.106Z,48.27
2018-11-07T03:15:25.828Z,48.73
2018-11-07T03:17:54.544Z,45.60
2018-11-07T03:20:23.099Z,43.43
2018-11-07T03:22:51.744Z,45.27
2018-11-07T03:25:20.451Z,44.37
2018-11-07T03:27:49.059Z,46.50
2018-11-07T03:30:17.707Z,49.00
2018-11-07T03:32:46.364Z,47.80
2018-11-07T03:35:20.286Z,45.40
2018-11-07T03:37:48.988Z,50.67
2018-11-07T03:40:17.550Z,56.20
2018-11-07T03:42:46.184Z,54.20
2018-11-07T03:45:14.833Z,55.80
2018-11-07T03:47:43.683Z,52.65
2018-11-07T03:55:08.639Z,57.50
2018-11-07T03:57:37.414Z,54.50
2018-11-07T04:00:08.220Z,54.20
2018-11-07T04:02:37.146Z,57.10
2018-11-07T04:07:34.386Z,52.30
2018-11-07T04:14:58.838Z,53.53
2018-11-07T04:17:27.585Z,55.55
2018-11-07T04:19:56.296Z,53.50
2018-11-07T04:24:52.844Z,52.87
2018-11-07T04:32:17.231Z,50.30
2018-11-07T04:37:14.150Z,50.30
2018-11-07T04:44:38.827Z,51.95
2018-11-07T04:47:07.767Z,51.40
2018-11-07T04:49:36.342Z,50.57
2018-11-07T04:59:28.381Z,52.65
2018-11-07T05:04:28.032Z,54.23
2018-11-07T05:06:56.858Z,50.50
2018-11-07T05:09:25.843Z,54.45
2018-11-07T05:19:19.095Z,48.43
2018-11-07T05:21:47.699Z,49.17
2018-11-07T05:24:16.235Z,47.63
2018-11-07T05:26:45.120Z,45.90
2018-11-07T05:29:14.006Z,49.67
2018-11-07T05:31:43.578Z,52.40
2018-11-07T05:34:12.317Z,53.60
2018-11-07T05:36:41.363Z,52.73
2018-11-07T05:39:10.605Z,58.37
2018-11-07T05:41:39.211Z,54.77
2018-11-07T05:46:36.048Z,62.70
2018-11-07T05:51:33.040Z,57.60
2018-11-07T05:54:01.911Z,64.70
2018-11-07T05:56:30.527Z,61.60
2018-11-07T05:58:59.355Z,59.70
2018-11-07T06:06:23.639Z,60.33
2018-11-07T06:08:52.566Z,52.63
2018-11-07T06:11:21.169Z,53.65
2018-11-07T06:13:49.886Z,52.97
2018-11-07T06:18:47.177Z,53.50
2018-11-07T06:21:15.902Z,51.75
2018-11-07T06:23:44.550Z,50.60
2018-11-07T06:28:41.334Z,45.90
2018-11-07T06:33:37.767Z,46.30
2018-11-07T06:36:06.872Z,45.40
2018-11-07T06:38:35.733Z,45.43
2018-11-07T06:41:04.500Z,44.30
2018-11-07T06:43:33.594Z,46.87
2018-11-07T06:46:02.173Z,45.17
2018-11-07T06:48:30.905Z,43.40
2018-11-07T06:50:59.765Z,44.90
2018-11-07T06:53:28.592Z,43.53
2018-11-07T06:55:57.296Z,43.60
2018-11-07T06:58:26.354Z,39.67
2018-11-07T07:00:54.970Z,44.40
2018-11-07T07:03:23.602Z,39.33
2018-11-07T07:05:52.442Z,39.87
2018-11-07T07:08:21.465Z,39.23
2018-11-07T07:10:50.173Z,38.50
2018-11-07T07:13:18.847Z,38.90
2018-11-07T07:20:43.764Z,39.50
2018-11-07T07:23:12.506Z,35.63
2018-11-07T07:25:41.491Z,34.73
2018-11-07T07:28:10.969Z,33.50
2018-11-07T07:30:39.668Z,32.50
2018-11-07T07:33:08.404Z,35.73
2018-11-07T07:35:36.929Z,32.00
2018-11-07T07:38:06.092Z,31.97
2018-11-07T07:40:34.690Z,33.90
2018-11-07T07:43:03.873Z,30.70
2018-11-07T07:45:32.542Z,30.60
2018-11-07T07:48:01.156Z,31.10
2018-11-07T07:50:29.883Z,30.77
2018-11-07T07:52:58.876Z,29.03
2018-11-07T07:55:27.601Z,27.63
2018-11-07T07:57:56.269Z,30.33
2018-11-07T08:00:25.722Z,29.20
2018-11-07T08:02:54.422Z,28.60
2018-11-07T08:15:17.686Z,28.00
2018-11-07T08:25:12.582Z,24.65
2018-11-07T08:35:08.665Z,25.15
2018-11-07T08:37:37.573Z,24.60
2018-11-07T08:40:09.185Z,25.17
2018-11-07T08:42:38.484Z,22.60
2018-11-07T08:45:07.882Z,21.97
2018-11-07T08:47:36.692Z,21.70
2018-11-07T08:50:07.637Z,21.53
2018-11-07T08:52:36.304Z,22.17
2018-11-07T08:55:06.084Z,19.10
2018-11-07T08:57:34.863Z,21.00
2018-11-07T09:00:03.827Z,19.40
2018-11-07T09:02:32.472Z,20.63
2018-11-07T09:05:01.039Z,19.80
2018-11-07T09:07:29.571Z,18.80
2018-11-07T09:09:58.106Z,20.50
2018-11-07T09:12:26.676Z,19.77
2018-11-07T09:14:55.276Z,18.20
2018-11-07T09:17:23.972Z,18.00
2018-11-07T09:19:52.958Z,18.77
2018-11-07T09:22:21.779Z,18.47
2018-11-07T09:24:50.393Z,19.00
2018-11-07T09:27:19.347Z,17.60
2018-11-07T09:29:48.243Z,19.37
2018-11-07T09:32:16.834Z,17.47
2018-11-07T09:34:45.618Z,17.70
2018-11-07T09:37:14.452Z,18.47
2018-11-07T09:39:43.207Z,18.67
2018-11-07T09:42:12.036Z,19.30
2018-11-07T09:44:40.613Z,17.30
2018-11-07T09:47:09.254Z,18.50
2018-11-07T09:49:37.838Z,17.40
2018-11-07T09:52:06.643Z,18.30
2018-11-07T09:54:35.204Z,18.33
2018-11-07T09:57:04.428Z,15.97
2018-11-07T09:59:33.088Z,18.50
2018-11-07T10:02:01.733Z,16.67
2018-11-07T10:04:30.653Z,17.50
2018-11-07T10:06:59.397Z,18.80
2018-11-07T10:09:28.141Z,17.47
2018-11-07T10:11:56.971Z,16.23
2018-11-07T10:14:25.563Z,17.20
2018-11-07T10:16:54.203Z,16.93
2018-11-07T10:21:50.835Z,16.23
2018-11-07T10:24:19.771Z,16.60
2018-11-07T10:26:48.388Z,16.23
2018-11-07T10:29:17.477Z,15.53
2018-11-07T10:31:45.983Z,14.83
2018-11-07T10:34:14.681Z,14.73
2018-11-07T10:36:43.618Z,13.03
2018-11-07T10:39:12.309Z,15.27
2018-11-07T10:41:43.861Z,15.83
2018-11-07T10:44:12.547Z,14.83
2018-11-07T10:46:41.199Z,14.90
2018-11-07T10:49:10.127Z,14.53
2018-11-07T10:51:38.990Z,15.20
2018-11-07T10:54:07.762Z,14.60
2018-11-07T10:56:36.365Z,14.77
2018-11-07T10:59:05.388Z,14.50
2018-11-07T11:01:39.650Z,15.13
2018-11-07T11:04:08.203Z,13.60
2018-11-07T11:06:36.982Z,16.10
2018-11-07T11:09:07.351Z,14.03
2018-11-07T11:11:36.074Z,14.80
2018-11-07T11:14:04.826Z,13.70
2018-11-07T11:16:33.350Z,13.77
2018-11-07T11:19:02.184Z,14.17
2018-11-07T11:21:31.018Z,13.15
2018-11-07T11:23:59.717Z,13.43
2018-11-07T11:26:28.384Z,13.20
2018-11-07T11:28:57.018Z,13.53
2018-11-07T11:31:25.833Z,13.27
2018-11-07T11:33:54.563Z,13.27
2018-11-07T11:41:19.047Z,15.45
2018-11-07T11:43:47.555Z,15.00
2018-11-07T11:46:16.191Z,15.10
2018-11-07T11:48:44.875Z,14.73
2018-11-07T11:51:13.578Z,14.67
2018-11-07T11:53:42.089Z,14.47
2018-11-07T11:56:10.976Z,13.90
2018-11-07T11:58:39.837Z,14.67
2018-11-07T12:01:08.739Z,14.90
2018-11-07T12:03:37.499Z,14.60
2018-11-07T12:06:06.269Z,14.67
2018-11-07T12:08:34.919Z,13.87
2018-11-07T12:23:24.795Z,14.90
2018-11-07T12:28:22.323Z,18.30
2018-11-07T12:33:18.664Z,15.90
2018-11-07T12:35:47.471Z,15.90
2018-11-07T12:38:16.422Z,16.20
2018-11-07T12:40:45.318Z,17.40
2018-11-07T12:43:14.149Z,17.47
2018-11-07T12:45:44.045Z,16.43
2018-11-07T12:48:12.679Z,17.60
2018-11-07T12:50:41.248Z,16.30
2018-11-07T12:53:09.888Z,17.93
2018-11-07T12:55:38.798Z,17.97
2018-11-07T12:58:08.799Z,19.13
2018-11-07T13:00:37.192Z,17.50
2018-11-07T13:03:05.980Z,17.50
2018-11-07T13:05:34.643Z,18.30
2018-11-07T13:08:03.173Z,15.43
2018-11-07T13:10:31.815Z,19.00
2018-11-07T13:13:00.768Z,17.07
2018-11-07T13:15:29.382Z,16.40
2018-11-07T13:17:58.039Z,16.33
2018-11-07T13:20:26.670Z,16.40
2018-11-07T13:22:55.796Z,17.30
2018-11-07T13:25:25.354Z,15.40
2018-11-07T13:27:54.172Z,17.80
2018-11-07T13:30:23.570Z,18.30
2018-11-07T13:40:26.480Z,16.10
2018-11-07T14:03:02.825Z,16.70
2018-11-07T14:05:31.729Z,16.90
2018-11-07T14:15:46.165Z,18.40
2018-11-07T14:18:17.725Z,18.80
2018-11-07T14:20:51.382Z,17.67
2018-11-07T14:23:21.768Z,19.20
2018-11-07T14:25:54.930Z,18.27
2018-11-07T14:28:26.312Z,19.75
2018-11-07T14:30:55.248Z,18.70
2018-11-07T14:33:24.623Z,18.77
2018-11-07T14:35:53.275Z,18.03
2018-11-07T14:38:21.872Z,17.50
2018-11-07T14:40:50.481Z,17.33
2018-11-07T14:43:19.088Z,17.87
2018-11-07T14:45:47.680Z,18.10
2018-11-07T14:48:16.218Z,17.60
2018-11-07T14:50:44.984Z,19.53
2018-11-07T14:53:13.534Z,20.77
2018-11-07T14:55:42.094Z,20.13
2018-11-07T14:58:10.953Z,18.57
2018-11-07T15:00:39.669Z,20.10
2018-11-07T15:03:08.233Z,19.73
2018-11-07T15:05:36.947Z,19.13
2018-11-07T15:08:06.233Z,19.47
2018-11-07T15:10:34.919Z,20.80
2018-11-07T15:13:03.488Z,19.27
2018-11-07T15:15:32.114Z,18.80
2018-11-07T15:18:00.756Z,19.97
2018-11-07T15:20:29.643Z,21.00
2018-11-07T15:22:58.429Z,20.23
2018-11-07T15:25:27.170Z,19.40
2018-11-07T15:27:55.710Z,18.55
2018-11-07T15:30:24.277Z,21.90
2018-11-07T15:32:53.012Z,20.93
2018-11-07T15:35:21.582Z,20.90
2018-11-07T15:37:50.311Z,20.70
2018-11-07T15:40:19.947Z,22.00
2018-11-07T15:42:49.122Z,22.07
2018-11-07T15:45:19.342Z,22.30
2018-11-07T15:47:48.019Z,23.73
2018-11-07T15:50:21.950Z,20.00
2018-11-07T15:52:50.696Z,22.95
2018-11-07T15:55:19.303Z,22.45
2018-11-07T15:57:47.864Z,22.93
2018-11-07T16:00:17.738Z,25.25
2018-11-07T16:02:46.547Z,24.50
2018-11-07T16:05:16.323Z,23.20
2018-11-07T16:07:45.052Z,24.50
2018-11-07T16:10:15.116Z,22.30
2018-11-07T16:12:43.783Z,22.60
2018-11-07T16:15:14.162Z,24.90
2018-11-07T16:17:43.385Z,24.00
2018-11-07T16:20:13.132Z,24.30
2018-11-07T16:22:43.084Z,26.53
2018-11-07T16:25:11.690Z,25.25
2018-11-07T16:27:41.150Z,24.73
2018-11-07T16:30:12.916Z,24.80
2018-11-07T16:32:41.931Z,24.30
2018-11-07T16:35:11.969Z,26.30
2018-11-07T16:37:40.790Z,25.80
2018-11-07T16:40:12.432Z,25.20
2018-11-07T16:42:41.890Z,25.43
2018-11-07T16:45:12.038Z,28.40
2018-11-07T16:47:40.620Z,26.50
2018-11-07T16:50:10.929Z,26.47
2018-11-07T16:52:39.892Z,26.80
2018-11-07T16:55:08.678Z,25.43
2018-11-07T16:57:38.134Z,25.13
2018-11-07T17:00:13.073Z,24.80
2018-11-07T17:02:42.814Z,25.40
2018-11-07T17:05:12.470Z,23.60
2018-11-07T17:07:41.143Z,24.75
2018-11-07T17:10:11.222Z,24.03
2018-11-07T17:12:40.029Z,24.75
2018-11-07T17:15:08.718Z,24.57
2018-11-07T17:17:37.854Z,26.33
2018-11-07T17:20:08.027Z,23.10
2018-11-07T17:22:36.806Z,22.93
2018-11-07T17:25:07.123Z,25.30
2018-11-07T17:27:36.468Z,26.00
2018-11-07T17:32:33.214Z,25.35
2018-11-07T17:39:58.637Z,25.75
2018-11-07T17:42:27.679Z,27.03
2018-11-07T17:44:56.798Z,25.50
2018-11-07T17:59:47.824Z,26.10
2018-11-07T18:02:16.591Z,26.25
2018-11-07T18:04:45.219Z,25.20
2018-11-07T18:09:41.634Z,25.73
2018-11-07T18:24:30.306Z,24.77
2018-11-07T18:26:59.130Z,27.43
2018-11-07T18:39:19.618Z,25.25
2018-11-07T18:41:48.348Z,24.60
2018-11-07T18:46:45.149Z,25.70
2018-11-07T18:51:43.261Z,25.05
2018-11-07T18:54:12.346Z,23.40
2018-11-07T18:56:41.346Z,25.20
2018-11-07T18:59:10.493Z,25.47
2018-11-07T19:04:09.541Z,25.60
2018-11-07T19:06:39.176Z,25.47
2018-11-07T19:09:09.376Z,24.93
2018-11-07T19:11:39.110Z,26.30
2018-11-07T19:14:09.142Z,25.43
2018-11-07T19:21:36.071Z,25.17
2018-11-07T19:24:05.436Z,23.93
2018-11-07T19:26:34.176Z,24.50
2018-11-07T19:29:02.780Z,24.60
2018-11-07T19:31:31.455Z,23.40
2018-11-07T19:34:00.571Z,23.03
2018-11-07T19:36:30.686Z,21.93
2018-11-07T19:39:00.878Z,22.13
2018-11-07T19:41:30.020Z,21.90
2018-11-07T19:43:59.013Z,23.90
2018-11-07T19:46:29.195Z,23.50
2018-11-07T19:48:59.491Z,26.60
2018-11-07T19:51:28.903Z,24.20
2018-11-07T19:53:59.586Z,26.23
2018-11-07T19:56:30.435Z,24.20
2018-11-07T19:59:00.857Z,26.67
2018-11-07T20:01:30.828Z,26.40
2018-11-07T20:03:59.856Z,28.50
2018-11-07T20:06:31.284Z,28.10
2018-11-07T20:09:02.149Z,26.70
2018-11-07T20:11:32.674Z,23.40
2018-11-07T20:14:01.872Z,23.80
2018-11-07T20:16:30.752Z,21.13
2018-11-07T20:18:59.970Z,21.23
2018-11-07T20:21:28.802Z,25.17
2018-11-07T20:23:57.898Z,22.47
2018-11-07T20:26:27.859Z,26.03
2018-11-07T20:28:57.154Z,22.77
2018-11-07T20:31:26.458Z,22.95
2018-11-07T20:33:56.536Z,24.07
2018-11-07T20:36:25.922Z,23.17
2018-11-07T20:41:22.799Z,23.87
2018-11-07T20:53:46.077Z,23.80
2018-11-07T20:56:15.060Z,21.93
2018-11-07T20:58:43.673Z,21.70
2018-11-07T21:01:12.256Z,18.60
2018-11-07T21:03:40.858Z,19.60
2018-11-07T21:06:09.506Z,19.83
2018-11-07T21:08:38.358Z,21.30
2018-11-07T21:13:34.943Z,21.03
2018-11-07T21:16:03.525Z,22.93
2018-11-07T21:18:32.158Z,21.83
2018-11-07T21:21:00.807Z,23.43
2018-11-07T21:23:29.420Z,25.23
2018-11-07T21:25:58.676Z,24.50
2018-11-07T21:28:27.254Z,22.80
2018-11-07T21:30:55.830Z,22.00
2018-11-07T21:33:24.367Z,22.60
2018-11-07T21:35:54.312Z,23.27
2018-11-07T21:38:22.953Z,24.40
2018-11-07T21:40:51.693Z,21.80
2018-11-07T21:43:20.983Z,22.57
2018-11-07T21:45:49.623Z,23.85
2018-11-07T21:48:18.229Z,25.13
2018-11-07T21:50:46.898Z,23.10
2018-11-07T21:55:43.219Z,23.37
2018-11-07T21:58:11.801Z,25.00
2018-11-07T22:37:44.791Z,22.10
2018-11-07T22:40:17.633Z,21.40
2018-11-07T22:42:46.183Z,22.07
2018-11-07T22:45:15.300Z,22.33
2018-11-07T22:47:43.961Z,23.80
2018-11-07T23:02:47.168Z,20.60
2018-11-07T23:05:15.973Z,21.40
2018-11-07T23:07:46.198Z,22.27
2018-11-07T23:20:08.637Z,20.70
2018-11-07T23:22:37.399Z,20.30
2018-11-07T23:59:38.784Z,16.17
